createdAt,value
2019-04-05T00:03:25.779Z,5.90
2019-04-05T00:08:29.547Z,5.90
2019-04-05T00:13:33.378Z,5.90
2019-04-05T00:18:37.122Z,5.90
2019-04-05T00:23:41.171Z,5.90
2019-04-05T00:28:45.291Z,5.90
2019-04-05T00:33:49.087Z,5.90
2019-04-05T00:38:52.970Z,5.90
2019-04-05T00:43:57.187Z,5.90
2019-04-05T00:49:01.130Z,5.90
2019-04-05T00:54:05.213Z,5.80
2019-04-05T00:59:08.976Z,5.80
2019-04-05T01:04:12.829Z,5.80
2019-04-05T01:09:16.570Z,5.80
2019-04-05T01:14:20.404Z,5.80
2019-04-05T01:19:24.843Z,5.80
2019-04-05T01:24:28.629Z,5.80
2019-04-05T01:29:32.444Z,5.80
2019-04-05T01:34:36.369Z,5.80
2019-04-05T01:39:40.502Z,5.90
2019-04-05T01:44:44.767Z,5.80
2019-04-05T01:49:48.548Z,5.80
2019-04-05T01:54:52.410Z,5.80
2019-04-05T01:59:56.162Z,5.80
2019-04-05T02:05:00.560Z,5.80
2019-04-05T02:10:06.020Z,5.80
2019-04-05T02:15:13.664Z,5.80
2019-04-05T02:20:17.419Z,5.80
2019-04-05T02:25:21.147Z,5.80
2019-04-05T02:30:24.933Z,5.80
2019-04-05T02:35:28.715Z,5.80
2019-04-05T02:40:32.589Z,5.80
2019-04-05T02:45:36.716Z,5.80
2019-04-05T02:50:43.642Z,5.80
2019-04-05T02:55:47.462Z,5.70
2019-04-05T03:00:51.220Z,5.80
2019-04-05T03:05:55.603Z,5.70
2019-04-05T03:11:03.601Z,5.80
2019-04-05T03:16:12.106Z,5.80
2019-04-05T03:21:15.851Z,5.80
2019-04-05T03:26:20.166Z,5.80
2019-04-05T03:31:25.847Z,5.80
2019-04-05T03:36:30.250Z,5.80
2019-04-05T03:41:33.968Z,5.80
2019-04-05T03:46:37.705Z,5.80
2019-04-05T03:51:41.466Z,5.80
2019-04-05T03:56:45.753Z,5.80
2019-04-05T04:01:49.496Z,5.80
2019-04-05T04:06:53.322Z,5.80
2019-04-05T04:11:57.162Z,5.80
2019-04-05T04:17:12.138Z,5.80
2019-04-05T04:22:18.474Z,5.80
2019-04-05T04:27:22.559Z,5.90
2019-04-05T04:32:26.393Z,5.90
2019-04-05T04:37:30.099Z,5.90
2019-04-05T04:42:33.894Z,5.90
2019-04-05T04:47:37.930Z,5.90
2019-04-05T04:52:41.740Z,5.90
2019-04-05T04:57:45.802Z,5.90
2019-04-05T05:02:49.765Z,5.90
2019-04-05T05:07:53.925Z,5.90
2019-04-05T05:12:57.988Z,5.90
2019-04-05T05:18:01.742Z,5.90
2019-04-05T05:23:05.644Z,5.90
2019-04-05T05:28:09.383Z,5.90
2019-04-05T05:33:13.271Z,5.90
2019-04-05T05:38:17.247Z,5.90
2019-04-05T05:43:23.720Z,5.90
2019-04-05T05:48:26.569Z,5.90
2019-04-05T05:53:31.131Z,5.90
2019-04-05T05:58:34.070Z,6.00
2019-04-05T06:03:38.412Z,6.00
2019-04-05T06:08:42.255Z,6.00
2019-04-05T06:13:46.139Z,6.00
2019-04-05T06:18:50.001Z,6.00
2019-04-05T06:23:53.876Z,6.00
2019-04-05T06:28:57.986Z,6.00
2019-04-05T06:34:01.753Z,6.10
2019-04-05T06:39:07.542Z,6.10
2019-04-05T06:44:11.292Z,6.10
2019-04-05T06:49:15.281Z,6.10
2019-04-05T06:54:19.000Z,6.20
2019-04-05T06:59:22.786Z,6.20
2019-04-05T07:04:26.553Z,6.20
2019-04-05T07:09:30.316Z,6.20
2019-04-05T07:14:34.188Z,6.30
2019-04-05T07:19:38.036Z,6.30
2019-04-05T07:24:42.091Z,6.40
2019-04-05T07:29:45.939Z,6.40
2019-04-05T07:34:49.774Z,6.50
2019-04-05T07:39:54.694Z,6.60
2019-04-05T07:44:58.703Z,6.70
2019-04-05T07:50:02.489Z,6.80
2019-04-05T07:55:06.430Z,6.90
2019-04-05T08:00:11.301Z,7.00
2019-04-05T08:05:15.060Z,7.10
2019-04-05T08:10:18.880Z,7.20
2019-04-05T08:15:22.746Z,7.40
2019-04-05T08:20:26.545Z,7.40
2019-04-05T08:25:30.312Z,7.50
2019-04-05T08:30:34.428Z,7.50
2019-04-05T08:35:38.740Z,7.60
2019-04-05T08:40:42.481Z,7.60
2019-04-05T08:45:46.241Z,7.50
2019-04-05T08:50:50.034Z,7.60
2019-04-05T08:55:53.731Z,7.80
2019-04-05T09:00:57.531Z,7.90
2019-04-05T09:06:01.318Z,7.90
2019-04-05T09:11:05.104Z,8.00
2019-04-05T09:16:11.567Z,8.00
2019-04-05T09:21:17.455Z,7.90
2019-04-05T09:26:20.220Z,7.70
2019-04-05T09:31:23.973Z,7.60
2019-04-05T09:36:27.765Z,7.60
2019-04-05T09:41:31.522Z,7.60
2019-04-05T09:46:45.873Z,7.60
2019-04-05T09:51:40.793Z,7.60
2019-04-05T09:56:44.951Z,7.70
2019-04-05T10:01:48.909Z,7.70
2019-04-05T10:06:52.634Z,7.80
2019-04-05T10:11:56.411Z,7.90
2019-04-05T10:17:00.217Z,7.90
2019-04-05T10:22:04.030Z,7.90
2019-04-05T10:27:08.109Z,8.00
2019-04-05T10:32:11.854Z,8.00
2019-04-05T10:37:15.591Z,8.00
2019-04-05T10:42:31.157Z,8.10
2019-04-05T10:47:35.236Z,8.10
2019-04-05T10:52:39.290Z,8.20
2019-04-05T10:57:43.386Z,8.20
2019-04-05T11:02:47.126Z,8.20
2019-04-05T11:07:50.828Z,8.20
2019-04-05T11:12:54.583Z,8.30
2019-04-05T11:17:58.361Z,8.20
2019-04-05T11:23:02.646Z,8.10
2019-04-05T11:28:06.538Z,8.10
2019-04-05T11:33:10.286Z,8.00
2019-04-05T11:38:14.876Z,8.00
2019-04-05T11:43:17.774Z,8.00
2019-04-05T11:48:21.515Z,8.00
2019-04-05T11:53:25.277Z,8.10
2019-04-05T11:58:29.309Z,8.10
2019-04-05T12:03:33.172Z,8.20
2019-04-05T12:08:36.945Z,8.10
2019-04-05T12:13:40.761Z,8.20
2019-04-05T12:18:44.486Z,8.10
2019-04-05T12:23:48.702Z,8.10
2019-04-05T12:28:52.496Z,8.00
2019-04-05T12:33:56.352Z,8.00
2019-04-05T12:39:01.578Z,8.00
2019-04-05T12:44:05.898Z,8.00
2019-04-05T12:49:09.630Z,8.00
2019-04-05T12:54:13.407Z,8.00
2019-04-05T12:59:17.149Z,8.00
2019-04-05T13:04:21.318Z,8.00
2019-04-05T13:09:25.435Z,8.00
2019-04-05T13:14:29.489Z,8.00
2019-04-05T13:19:33.881Z,7.90
2019-04-05T13:24:40.335Z,7.90
2019-04-05T13:29:43.409Z,7.90
2019-04-05T13:34:47.143Z,7.90
2019-04-05T13:39:51.669Z,7.90
2019-04-05T13:44:55.474Z,7.90
2019-04-05T13:49:59.225Z,7.90
2019-04-05T13:55:03.532Z,7.90
2019-04-05T14:00:07.814Z,7.90
2019-04-05T14:05:12.697Z,7.90
2019-04-05T14:10:17.269Z,7.90
2019-04-05T14:15:21.292Z,7.80
2019-04-05T14:20:25.046Z,7.80
2019-04-05T14:25:30.268Z,7.80
2019-04-05T14:30:34.235Z,7.80
2019-04-05T14:35:38.262Z,7.80
2019-04-05T14:40:42.117Z,7.80
2019-04-05T14:45:46.079Z,7.80
2019-04-05T14:50:50.069Z,7.80
2019-04-05T14:55:53.854Z,7.80
2019-04-05T15:00:57.543Z,7.80
2019-04-05T15:06:01.274Z,7.80
2019-04-05T15:11:05.471Z,7.80
2019-04-05T15:16:13.566Z,7.80
2019-04-05T15:21:15.457Z,7.70
2019-04-05T15:26:21.358Z,7.70
2019-04-05T15:31:26.489Z,7.70
2019-04-05T15:36:31.547Z,7.70
2019-04-05T15:41:36.685Z,7.70
2019-04-05T15:46:40.421Z,7.70
2019-04-05T15:51:45.122Z,7.70
2019-04-05T15:56:49.251Z,7.60
2019-04-05T16:01:52.987Z,7.70
2019-04-05T16:06:57.016Z,7.60
2019-04-05T16:12:01.352Z,7.60
2019-04-05T16:17:05.400Z,7.50
2019-04-05T16:22:09.133Z,7.50
2019-04-05T16:27:13.240Z,7.50
2019-04-05T16:32:17.336Z,7.50
2019-04-05T16:37:21.573Z,7.50
2019-04-05T16:42:25.449Z,7.50
2019-04-05T16:47:29.230Z,7.50
2019-04-05T16:52:44.127Z,7.50
2019-04-05T16:57:38.796Z,7.50
2019-04-05T17:02:42.933Z,7.50
2019-04-05T17:07:46.963Z,7.50
2019-04-05T17:12:51.043Z,7.50
2019-04-05T17:17:54.800Z,7.50
2019-04-05T17:22:58.995Z,7.50
2019-04-05T17:28:02.924Z,7.50
2019-04-05T17:33:06.968Z,7.50
2019-04-05T17:38:11.004Z,7.50
2019-04-05T17:43:14.763Z,7.50
2019-04-05T17:48:18.559Z,7.50
2019-04-05T17:53:22.267Z,7.40
2019-04-05T17:58:28.874Z,7.40
2019-04-05T18:03:32.949Z,7.40
2019-04-05T18:08:36.690Z,7.40
2019-04-05T18:13:40.510Z,7.40
2019-04-05T18:18:44.294Z,7.40
2019-04-05T18:23:48.114Z,7.40
2019-04-05T18:28:52.076Z,7.40
2019-04-05T18:33:55.802Z,7.40
2019-04-05T18:38:59.576Z,7.40
2019-04-05T18:44:03.422Z,7.40
2019-04-05T18:49:07.459Z,7.40
2019-04-05T18:54:11.230Z,7.40
2019-04-05T18:59:15.324Z,7.30
2019-04-05T19:04:19.324Z,7.40
2019-04-05T19:09:23.114Z,7.40
2019-04-05T19:14:26.854Z,7.40
2019-04-05T19:19:30.682Z,7.30
2019-04-05T19:24:34.502Z,7.30
2019-04-05T19:29:38.235Z,7.30
2019-04-05T19:49:59.631Z,7.30
2019-04-05T19:55:03.467Z,7.40
2019-04-05T20:00:07.456Z,7.40
2019-04-05T20:05:11.496Z,7.40
2019-04-05T20:10:15.339Z,7.40
2019-04-05T20:15:19.076Z,7.30
2019-04-05T20:20:23.042Z,7.30
2019-04-05T20:25:26.866Z,7.30
2019-04-05T20:30:31.171Z,7.30
2019-04-05T20:35:34.917Z,7.30
2019-04-05T20:40:38.731Z,7.30
2019-04-05T20:45:42.968Z,7.20
2019-04-05T20:50:47.085Z,7.20
2019-04-05T20:55:51.451Z,7.20
2019-04-05T21:00:55.544Z,7.20
2019-04-05T21:05:59.402Z,7.20
2019-04-05T21:11:03.429Z,7.20
2019-04-05T21:16:07.155Z,7.20
2019-04-05T21:21:11.429Z,7.20
2019-04-05T21:26:15.458Z,7.20
2019-04-05T21:31:19.524Z,7.20
2019-04-05T21:36:23.362Z,7.20
2019-04-05T21:41:27.383Z,7.30
2019-04-05T21:46:31.226Z,7.20
2019-04-05T21:51:35.514Z,7.20
2019-04-05T21:56:39.364Z,7.20
2019-04-05T22:01:43.591Z,7.20
2019-04-05T22:06:47.702Z,7.20
2019-04-05T22:11:51.605Z,7.20
2019-04-05T22:16:55.451Z,7.20
2019-04-05T22:21:59.412Z,7.20
2019-04-05T22:27:03.206Z,7.20
2019-04-05T22:32:07.142Z,7.20
2019-04-05T22:37:11.605Z,7.20
2019-04-05T22:42:15.454Z,7.20
2019-04-05T22:47:19.296Z,7.20
2019-04-05T22:52:23.117Z,7.20
2019-04-05T22:57:27.157Z,7.20
2019-04-05T23:02:31.304Z,7.20
2019-04-05T23:07:35.122Z,7.20
2019-04-05T23:12:39.317Z,7.20
2019-04-05T23:17:43.256Z,7.10
2019-04-05T23:22:47.538Z,7.10
2019-04-05T23:27:51.346Z,7.10
2019-04-05T23:32:55.141Z,7.00
2019-04-05T23:37:58.998Z,7.00
2019-04-05T23:43:03.112Z,7.00
2019-04-05T23:48:07.361Z,7.00
2019-04-05T23:53:11.293Z,6.90
2019-04-05T23:58:15.126Z,6.90
